Time;durP1;ratioP1;P1;durP2;ratioP2;P2;SDS_P1;SDS_P2;PMS_P1;PMS_P2;Temp;Humidity;BMP_temperature;BMP_pressure;BME280_temperature;BME280_humidity;BME280_pressure;Samples;Min_cycle;Max_cycle;Signal;HPM_P1;HPM_P2
2022/10/16 00:00:00;;;;;;;0.8;0.8;;;;;;;12.8;100.0;100770;;;;
2022/10/16 00:01:09;;;;;;;0.8;0.8;;;;;;;12.9;100.0;100760;;;;
2022/10/16 00:02:00;;;;;;;0.8;0.8;;;;;;;12.9;100.0;100760;;;;
2022/10/16 00:03:00;;;;;;;0.8;0.8;;;;;;;12.9;100.0;100770;;;;
2022/10/16 00:04:00;;;;;;;0.8;0.8;;;;;;;12.9;100.0;100770;;;;
2022/10/16 00:05:00;;;;;;;0.8;0.8;;;;;;;12.8;100.0;100770;;;;
2022/10/16 00:06:00;;;;;;;0.8;0.8;;;;;;;12.8;100.0;100770;;;;
2022/10/16 00:07:00;;;;;;;0.8;0.8;;;;;;;12.8;100.0;100770;;;;
2022/10/16 00:08:00;;;;;;;0.8;0.8;;;;;;;12.8;100.0;100770;;;;
2022/10/16 00:09:00;;;;;;;0.8;0.8;;;;;;;12.8;100.0;100780;;;;
2022/10/16 00:10:00;;;;;;;0.7;0.7;;;;;;;12.8;100.0;100780;;;;
2022/10/16 00:11:02;;;;;;;0.7;0.7;;;;;;;12.9;100.0;100770;;;;
2022/10/16 00:12:00;;;;;;;0.7;0.7;;;;;;;12.9;100.0;100770;;;;
2022/10/16 00:13:00;;;;;;;0.7;0.7;;;;;;;12.8;100.0;100760;;;;
2022/10/16 00:14:01;;;;;;;0.7;0.7;;;;;;;12.8;100.0;100760;;;;
2022/10/16 00:15:00;;;;;;;0.7;0.7;;;;;;;12.9;100.0;100760;;;;
2022/10/16 00:16:00;;;;;;;0.7;0.7;;;;;;;12.9;100.0;100760;;;;
2022/10/16 00:17:00;;;;;;;0.7;0.7;;;;;;;12.9;100.0;100760;;;;
2022/10/16 00:18:00;;;;;;;0.7;0.7;;;;;;;12.9;100.0;100760;;;;
2022/10/16 00:19:00;;;;;;;0.7;0.7;;;;;;;12.8;100.0;100770;;;;
2022/10/16 00:20:00;;;;;;;0.7;0.7;;;;;;;12.8;100.0;100770;;;;
2022/10/16 00:21:02;;;;;;;0.7;0.7;;;;;;;12.9;100.0;100770;;;;
2022/10/16 00:22:00;;;;;;;0.7;0.7;;;;;;;12.9;100.0;100770;;;;
2022/10/16 00:23:00;;;;;;;0.7;0.7;;;;;;;13.0;100.0;100770;;;;
2022/10/16 00:24:01;;;;;;;0.7;0.7;;;;;;;13.0;100.0;100770;;;;
2022/10/16 00:25:00;;;;;;;0.7;0.7;;;;;;;12.9;100.0;100770;;;;
2022/10/16 00:26:01;;;;;;;0.7;0.7;;;;;;;12.9;100.0;100770;;;;
2022/10/16 00:27:00;;;;;;;0.7;0.7;;;;;;;12.7;100.0;100770;;;;
2022/10/16 00:28:00;;;;;;;0.7;0.7;;;;;;;12.7;100.0;100770;;;;
2022/10/16 00:29:00;;;;;;;0.7;0.7;;;;;;;12.7;100.0;100770;;;;
2022/10/16 00:30:00;;;;;;;0.6;0.6;;;;;;;12.7;100.0;100770;;;;
2022/10/16 00:31:03;;;;;;;0.6;0.6;;;;;;;12.8;100.0;100770;;;;
2022/10/16 00:32:00;;;;;;;0.6;0.6;;;;;;;12.8;100.0;100770;;;;
2022/10/16 00:33:00;;;;;;;0.6;0.6;;;;;;;12.8;100.0;100770;;;;
2022/10/16 00:34:00;;;;;;;0.6;0.6;;;;;;;12.8;100.0;100770;;;;
2022/10/16 00:35:00;;;;;;;0.6;0.6;;;;;;;12.6;100.0;100770;;;;
2022/10/16 00:36:00;;;;;;;0.6;0.6;;;;;;;12.6;100.0;100770;;;;
2022/10/16 00:37:00;;;;;;;0.6;0.6;;;;;;;12.7;100.0;100770;;;;
2022/10/16 00:38:00;;;;;;;0.6;0.6;;;;;;;12.7;100.0;100770;;;;
2022/10/16 00:39:01;;;;;;;0.6;0.6;;;;;;;12.7;100.0;100770;;;;
2022/10/16 00:40:00;;;;;;;0.6;0.6;;;;;;;12.7;100.0;100770;;;;
2022/10/16 00:41:00;;;;;;;0.6;0.6;;;;;;;12.8;100.0;100780;;;;
2022/10/16 00:42:00;;;;;;;0.6;0.6;;;;;;;12.8;100.0;100780;;;;
2022/10/16 00:43:00;;;;;;;0.6;0.6;;;;;;;12.7;100.0;100780;;;;
2022/10/16 00:44:02;;;;;;;0.6;0.6;;;;;;;12.7;100.0;100780;;;;
2022/10/16 00:45:00;;;;;;;0.6;0.6;;;;;;;12.7;100.0;100770;;;;
2022/10/16 00:46:02;;;;;;;0.6;0.6;;;;;;;12.7;100.0;100770;;;;
2022/10/16 00:47:00;;;;;;;0.6;0.6;;;;;;;12.8;100.0;100770;;;;
2022/10/16 00:48:00;;;;;;;0.6;0.6;;;;;;;12.8;100.0;100770;;;;
2022/10/16 00:49:00;;;;;;;0.6;0.6;;;;;;;12.7;100.0;100780;;;;
2022/10/16 00:50:05;;;;;;;0.7;0.7;;;;;;;12.7;100.0;100780;;;;
2022/10/16 00:51:00;;;;;;;0.7;0.7;;;;;;;12.7;100.0;100770;;;;
2022/10/16 00:52:00;;;;;;;0.7;0.7;;;;;;;12.7;100.0;100770;;;;
2022/10/16 00:53:01;;;;;;;0.7;0.7;;;;;;;12.6;100.0;100770;;;;
2022/10/16 00:54:02;;;;;;;0.7;0.7;;;;;;;12.6;100.0;100770;;;;
2022/10/16 00:55:01;;;;;;;0.7;0.7;;;;;;;12.6;100.0;100780;;;;
2022/10/16 00:56:00;;;;;;;0.7;0.7;;;;;;;12.6;100.0;100780;;;;
2022/10/16 00:57:02;;;;;;;0.7;0.7;;;;;;;12.6;100.0;100780;;;;
2022/10/16 00:58:00;;;;;;;0.7;0.7;;;;;;;12.6;100.0;100780;;;;
2022/10/16 00:59:03;;;;;;;0.7;0.7;;;;;;;12.6;100.0;100780;;;;
2022/10/16 01:00:00;;;;;;;0.7;0.7;;;;;;;12.6;100.0;100780;;;;
2022/10/16 01:01:00;;;;;;;0.7;0.7;;;;;;;12.6;100.0;100780;;;;
2022/10/16 01:02:01;;;;;;;0.7;0.7;;;;;;;12.6;100.0;100780;;;;
2022/10/16 01:03:00;;;;;;;0.7;0.7;;;;;;;12.6;100.0;100780;;;;
2022/10/16 01:04:00;;;;;;;0.7;0.7;;;;;;;12.6;100.0;100780;;;;
2022/10/16 01:05:01;;;;;;;0.7;0.7;;;;;;;12.6;100.0;100780;;;;
2022/10/16 01:06:10;;;;;;;0.7;0.7;;;;;;;12.6;100.0;100780;;;;
2022/10/16 01:07:01;;;;;;;0.7;0.7;;;;;;;12.6;100.0;100780;;;;
2022/10/16 01:08:07;;;;;;;0.7;0.7;;;;;;;12.6;100.0;100780;;;;
2022/10/16 01:09:06;;;;;;;0.7;0.7;;;;;;;12.6;100.0;100780;;;;
2022/10/16 01:10:07;;;;;;;0.6;0.6;;;;;;;12.6;100.0;100780;;;;
2022/10/16 01:11:06;;;;;;;0.6;0.6;;;;;;;12.5;100.0;100770;;;;
2022/10/16 01:12:06;;;;;;;0.6;0.6;;;;;;;12.5;100.0;100770;;;;
2022/10/16 01:13:10;;;;;;;0.6;0.6;;;;;;;12.6;100.0;100770;;;;
2022/10/16 01:14:03;;;;;;;0.6;0.6;;;;;;;12.6;100.0;100770;;;;
2022/10/16 01:15:06;;;;;;;0.6;0.6;;;;;;;12.7;100.0;100770;;;;
2022/10/16 01:16:06;;;;;;;0.6;0.6;;;;;;;12.7;100.0;100770;;;;
2022/10/16 01:17:04;;;;;;;0.6;0.6;;;;;;;12.6;100.0;100770;;;;
2022/10/16 01:18:03;;;;;;;0.6;0.6;;;;;;;12.6;100.0;100770;;;;
2022/10/16 01:19:05;;;;;;;0.6;0.6;;;;;;;12.5;100.0;100770;;;;
2022/10/16 01:20:01;;;;;;;0.6;0.6;;;;;;;12.5;100.0;100770;;;;
2022/10/16 01:21:04;;;;;;;0.6;0.6;;;;;;;12.5;100.0;100770;;;;
2022/10/16 01:22:00;;;;;;;0.6;0.6;;;;;;;12.5;100.0;100770;;;;
2022/10/16 01:23:10;;;;;;;0.6;0.6;;;;;;;12.5;100.0;100770;;;;
2022/10/16 01:24:03;;;;;;;0.6;0.6;;;;;;;12.5;100.0;100770;;;;
2022/10/16 01:25:04;;;;;;;0.6;0.6;;;;;;;12.5;100.0;100780;;;;
2022/10/16 01:26:10;;;;;;;0.6;0.6;;;;;;;12.5;100.0;100780;;;;
2022/10/16 01:27:03;;;;;;;0.6;0.6;;;;;;;12.4;100.0;100770;;;;
2022/10/16 01:28:02;;;;;;;0.6;0.6;;;;;;;12.4;100.0;100770;;;;
2022/10/16 01:29:06;;;;;;;0.6;0.6;;;;;;;12.6;100.0;100770;;;;
2022/10/16 01:30:04;;;;;;;0.6;0.6;;;;;;;12.6;100.0;100770;;;;
2022/10/16 01:31:01;;;;;;;0.6;0.6;;;;;;;12.6;100.0;100780;;;;
2022/10/16 01:32:04;;;;;;;0.6;0.6;;;;;;;12.6;100.0;100780;;;;
2022/10/16 01:33:03;;;;;;;0.6;0.6;;;;;;;12.5;100.0;100780;;;;
2022/10/16 01:34:03;;;;;;;0.6;0.6;;;;;;;12.5;100.0;100780;;;;
2022/10/16 01:35:00;;;;;;;0.6;0.6;;;;;;;12.5;100.0;100780;;;;
2022/10/16 01:36:07;;;;;;;0.6;0.6;;;;;;;12.5;100.0;100780;;;;
2022/10/16 01:37:04;;;;;;;0.6;0.6;;;;;;;12.5;100.0;100770;;;;
2022/10/16 01:38:05;;;;;;;0.6;0.6;;;;;;;12.5;100.0;100770;;;;
2022/10/16 01:39:01;;;;;;;0.6;0.6;;;;;;;12.6;100.0;100770;;;;
2022/10/16 01:40:02;;;;;;;0.6;0.6;;;;;;;12.6;100.0;100770;;;;
2022/10/16 01:41:04;;;;;;;0.6;0.6;;;;;;;12.7;100.0;100780;;;;
2022/10/16 01:42:04;;;;;;;0.6;0.6;;;;;;;12.7;100.0;100780;;;;
2022/10/16 01:43:03;;;;;;;0.6;0.6;;;;;;;12.7;100.0;100770;;;;
2022/10/16 01:44:03;;;;;;;0.6;0.6;;;;;;;12.7;100.0;100770;;;;
2022/10/16 01:45:01;;;;;;;0.6;0.6;;;;;;;12.7;100.0;100770;;;;
2022/10/16 01:46:01;;;;;;;0.6;0.6;;;;;;;12.7;100.0;100770;;;;
2022/10/16 01:47:00;;;;;;;0.6;0.6;;;;;;;12.6;100.0;100770;;;;
2022/10/16 01:48:03;;;;;;;0.6;0.6;;;;;;;12.6;100.0;100770;;;;
2022/10/16 01:49:01;;;;;;;0.6;0.6;;;;;;;12.6;100.0;100770;;;;
2022/10/16 01:50:04;;;;;;;0.6;0.6;;;;;;;12.6;100.0;100770;;;;
2022/10/16 01:51:04;;;;;;;0.6;0.6;;;;;;;12.7;100.0;100770;;;;
2022/10/16 01:52:02;;;;;;;0.6;0.6;;;;;;;12.7;100.0;100770;;;;
2022/10/16 01:53:01;;;;;;;0.6;0.6;;;;;;;12.7;100.0;100780;;;;
2022/10/16 01:54:01;;;;;;;0.6;0.6;;;;;;;12.7;100.0;100780;;;;
2022/10/16 01:55:02;;;;;;;0.6;0.6;;;;;;;12.7;100.0;100780;;;;
2022/10/16 01:56:02;;;;;;;0.6;0.6;;;;;;;12.7;100.0;100780;;;;
2022/10/16 01:57:01;;;;;;;0.6;0.6;;;;;;;12.7;100.0;100770;;;;
2022/10/16 01:58:02;;;;;;;0.6;0.6;;;;;;;12.7;100.0;100770;;;;
2022/10/16 01:59:00;;;;;;;0.6;0.6;;;;;;;12.8;100.0;100770;;;;
2022/10/16 02:00:04;;;;;;;0.6;0.6;;;;;;;12.8;100.0;100770;;;;
2022/10/16 02:01:02;;;;;;;0.6;0.6;;;;;;;12.7;100.0;100780;;;;
2022/10/16 02:02:01;;;;;;;0.6;0.6;;;;;;;12.7;100.0;100780;;;;
2022/10/16 02:03:01;;;;;;;0.6;0.6;;;;;;;12.6;100.0;100780;;;;
2022/10/16 02:04:04;;;;;;;0.6;0.6;;;;;;;12.6;100.0;100780;;;;
2022/10/16 02:05:09;;;;;;;0.6;0.6;;;;;;;12.8;100.0;100780;;;;
2022/10/16 02:06:00;;;;;;;0.6;0.6;;;;;;;12.8;100.0;100780;;;;
2022/10/16 02:07:00;;;;;;;0.6;0.6;;;;;;;12.7;100.0;100780;;;;
2022/10/16 02:08:04;;;;;;;0.6;0.6;;;;;;;12.7;100.0;100780;;;;
2022/10/16 02:09:00;;;;;;;0.6;0.6;;;;;;;12.6;100.0;100790;;;;
2022/10/16 02:10:00;;;;;;;0.5;0.5;;;;;;;12.6;100.0;100790;;;;
2022/10/16 02:11:01;;;;;;;0.5;0.5;;;;;;;12.7;100.0;100790;;;;
2022/10/16 02:12:03;;;;;;;0.5;0.5;;;;;;;12.7;100.0;100790;;;;
2022/10/16 02:13:06;;;;;;;0.5;0.5;;;;;;;12.6;100.0;100780;;;;
2022/10/16 02:14:02;;;;;;;0.5;0.5;;;;;;;12.6;100.0;100780;;;;
2022/10/16 02:15:00;;;;;;;0.5;0.5;;;;;;;12.7;100.0;100780;;;;
2022/10/16 02:16:00;;;;;;;0.5;0.5;;;;;;;12.7;100.0;100780;;;;
2022/10/16 02:17:00;;;;;;;0.5;0.5;;;;;;;12.7;100.0;100790;;;;
2022/10/16 02:18:01;;;;;;;0.5;0.5;;;;;;;12.7;100.0;100790;;;;
2022/10/16 02:19:00;;;;;;;0.5;0.5;;;;;;;12.7;100.0;100790;;;;
2022/10/16 02:20:00;;;;;;;0.5;0.5;;;;;;;12.7;100.0;100790;;;;
2022/10/16 02:21:03;;;;;;;0.5;0.5;;;;;;;12.7;100.0;100800;;;;
2022/10/16 02:22:02;;;;;;;0.5;0.5;;;;;;;12.7;100.0;100800;;;;
2022/10/16 02:23:01;;;;;;;0.5;0.5;;;;;;;12.7;100.0;100790;;;;
2022/10/16 02:24:08;;;;;;;0.5;0.5;;;;;;;12.7;100.0;100790;;;;
2022/10/16 02:25:01;;;;;;;0.5;0.5;;;;;;;12.7;100.0;100790;;;;
2022/10/16 02:26:03;;;;;;;0.5;0.5;;;;;;;12.7;100.0;100790;;;;
2022/10/16 02:27:00;;;;;;;0.5;0.5;;;;;;;12.8;100.0;100790;;;;
2022/10/16 02:28:01;;;;;;;0.5;0.5;;;;;;;12.8;100.0;100790;;;;
2022/10/16 02:29:04;;;;;;;0.5;0.5;;;;;;;12.6;100.0;100790;;;;
2022/10/16 02:30:07;;;;;;;0.7;0.7;;;;;;;12.6;100.0;100790;;;;
2022/10/16 02:31:03;;;;;;;0.7;0.7;;;;;;;12.6;100.0;100780;;;;
2022/10/16 02:32:02;;;;;;;0.7;0.7;;;;;;;12.6;100.0;100780;;;;
2022/10/16 02:33:01;;;;;;;0.7;0.7;;;;;;;12.6;100.0;100780;;;;
2022/10/16 02:34:01;;;;;;;0.7;0.7;;;;;;;12.6;100.0;100780;;;;
2022/10/16 02:35:00;;;;;;;0.7;0.7;;;;;;;12.6;100.0;100780;;;;
2022/10/16 02:36:00;;;;;;;0.7;0.7;;;;;;;12.6;100.0;100780;;;;
2022/10/16 02:37:01;;;;;;;0.7;0.7;;;;;;;12.6;100.0;100780;;;;
2022/10/16 02:38:00;;;;;;;0.7;0.7;;;;;;;12.6;100.0;100780;;;;
2022/10/16 02:39:01;;;;;;;0.7;0.7;;;;;;;12.6;100.0;100780;;;;
2022/10/16 02:40:00;;;;;;;0.7;0.7;;;;;;;12.6;100.0;100780;;;;
2022/10/16 02:41:00;;;;;;;0.7;0.7;;;;;;;12.6;100.0;100780;;;;
2022/10/16 02:42:00;;;;;;;0.7;0.7;;;;;;;12.6;100.0;100780;;;;
2022/10/16 02:43:00;;;;;;;0.7;0.7;;;;;;;12.4;100.0;100780;;;;
2022/10/16 02:44:00;;;;;;;0.7;0.7;;;;;;;12.4;100.0;100780;;;;
2022/10/16 02:45:00;;;;;;;0.7;0.7;;;;;;;12.4;100.0;100780;;;;
2022/10/16 02:46:00;;;;;;;0.7;0.7;;;;;;;12.4;100.0;100780;;;;
2022/10/16 02:47:00;;;;;;;0.7;0.7;;;;;;;12.4;100.0;100790;;;;
2022/10/16 02:48:00;;;;;;;0.7;0.7;;;;;;;12.4;100.0;100790;;;;
2022/10/16 02:49:00;;;;;;;0.7;0.7;;;;;;;12.5;100.0;100800;;;;
2022/10/16 02:50:00;;;;;;;0.7;0.7;;;;;;;12.5;100.0;100800;;;;
2022/10/16 02:51:00;;;;;;;0.7;0.7;;;;;;;12.6;100.0;100800;;;;
2022/10/16 02:52:00;;;;;;;0.7;0.7;;;;;;;12.6;100.0;100800;;;;
2022/10/16 02:53:00;;;;;;;0.7;0.7;;;;;;;12.4;100.0;100790;;;;
2022/10/16 02:54:00;;;;;;;0.7;0.7;;;;;;;12.4;100.0;100790;;;;
2022/10/16 02:55:00;;;;;;;0.7;0.7;;;;;;;12.4;100.0;100790;;;;
2022/10/16 02:56:00;;;;;;;0.7;0.7;;;;;;;12.4;100.0;100790;;;;
2022/10/16 02:57:00;;;;;;;0.7;0.7;;;;;;;12.4;100.0;100780;;;;
2022/10/16 02:58:00;;;;;;;0.7;0.7;;;;;;;12.4;100.0;100780;;;;
2022/10/16 02:59:00;;;;;;;0.7;0.7;;;;;;;12.4;100.0;100790;;;;
2022/10/16 03:00:00;;;;;;;0.7;0.7;;;;;;;12.4;100.0;100790;;;;
2022/10/16 03:01:00;;;;;;;0.7;0.7;;;;;;;12.3;100.0;100770;;;;
2022/10/16 03:02:00;;;;;;;0.7;0.7;;;;;;;12.3;100.0;100770;;;;
2022/10/16 03:03:00;;;;;;;0.7;0.7;;;;;;;12.3;100.0;100780;;;;
2022/10/16 03:04:00;;;;;;;0.7;0.7;;;;;;;12.3;100.0;100780;;;;
2022/10/16 03:05:00;;;;;;;0.7;0.7;;;;;;;12.3;100.0;100780;;;;
2022/10/16 03:06:00;;;;;;;0.7;0.7;;;;;;;12.3;100.0;100780;;;;
2022/10/16 03:07:00;;;;;;;0.7;0.7;;;;;;;12.2;100.0;100780;;;;
2022/10/16 03:08:00;;;;;;;0.7;0.7;;;;;;;12.2;100.0;100780;;;;
2022/10/16 03:09:00;;;;;;;0.7;0.7;;;;;;;12.2;100.0;100780;;;;
2022/10/16 03:10:00;;;;;;;0.7;0.7;;;;;;;12.2;100.0;100780;;;;
2022/10/16 03:11:00;;;;;;;0.7;0.7;;;;;;;12.3;100.0;100790;;;;
2022/10/16 03:12:00;;;;;;;0.7;0.7;;;;;;;12.3;100.0;100790;;;;
2022/10/16 03:13:00;;;;;;;0.7;0.7;;;;;;;12.4;100.0;100790;;;;
2022/10/16 03:14:00;;;;;;;0.7;0.7;;;;;;;12.4;100.0;100790;;;;
2022/10/16 03:15:00;;;;;;;0.7;0.7;;;;;;;12.2;100.0;100790;;;;
2022/10/16 03:16:00;;;;;;;0.7;0.7;;;;;;;12.2;100.0;100790;;;;
2022/10/16 03:17:00;;;;;;;0.7;0.7;;;;;;;12.3;100.0;100800;;;;
2022/10/16 03:18:00;;;;;;;0.7;0.7;;;;;;;12.3;100.0;100800;;;;
2022/10/16 03:19:00;;;;;;;0.7;0.7;;;;;;;12.2;100.0;100800;;;;
2022/10/16 03:20:00;;;;;;;0.7;0.7;;;;;;;12.2;100.0;100800;;;;
2022/10/16 03:21:00;;;;;;;0.7;0.7;;;;;;;12.3;100.0;100800;;;;
2022/10/16 03:22:00;;;;;;;0.7;0.7;;;;;;;12.3;100.0;100800;;;;
2022/10/16 03:23:00;;;;;;;0.7;0.7;;;;;;;12.3;100.0;100800;;;;
2022/10/16 03:24:00;;;;;;;0.7;0.7;;;;;;;12.3;100.0;100800;;;;
2022/10/16 03:25:00;;;;;;;0.7;0.7;;;;;;;12.3;100.0;100800;;;;
2022/10/16 03:26:00;;;;;;;0.7;0.7;;;;;;;12.3;100.0;100800;;;;
2022/10/16 03:27:00;;;;;;;0.7;0.7;;;;;;;12.3;100.0;100810;;;;
2022/10/16 03:28:00;;;;;;;0.7;0.7;;;;;;;12.3;100.0;100810;;;;
2022/10/16 03:29:02;;;;;;;0.6;0.6;;;;;;;12.4;100.0;100810;;;;
2022/10/16 03:30:00;;;;;;;0.6;0.6;;;;;;;12.4;100.0;100810;;;;
2022/10/16 03:31:00;;;;;;;0.6;0.6;;;;;;;12.1;100.0;100810;;;;
2022/10/16 03:32:01;;;;;;;0.6;0.6;;;;;;;12.1;100.0;100810;;;;
2022/10/16 03:33:00;;;;;;;0.6;0.6;;;;;;;12.3;100.0;100820;;;;
2022/10/16 03:34:00;;;;;;;0.6;0.6;;;;;;;12.3;100.0;100820;;;;
2022/10/16 03:35:00;;;;;;;0.6;0.6;;;;;;;12.2;100.0;100820;;;;
2022/10/16 03:36:00;;;;;;;0.6;0.6;;;;;;;12.2;100.0;100820;;;;
2022/10/16 03:37:00;;;;;;;0.6;0.6;;;;;;;12.1;100.0;100820;;;;
2022/10/16 03:38:00;;;;;;;0.6;0.6;;;;;;;12.1;100.0;100820;;;;
2022/10/16 03:39:00;;;;;;;0.6;0.6;;;;;;;12.1;100.0;100820;;;;
2022/10/16 03:40:00;;;;;;;0.6;0.6;;;;;;;12.1;100.0;100820;;;;
2022/10/16 03:41:00;;;;;;;0.6;0.6;;;;;;;12.1;100.0;100820;;;;
2022/10/16 03:42:00;;;;;;;0.6;0.6;;;;;;;12.1;100.0;100820;;;;
2022/10/16 03:43:00;;;;;;;0.6;0.6;;;;;;;12.0;100.0;100820;;;;
2022/10/16 03:44:00;;;;;;;0.6;0.6;;;;;;;12.0;100.0;100820;;;;
2022/10/16 03:45:00;;;;;;;0.6;0.6;;;;;;;12.1;100.0;100820;;;;
2022/10/16 03:46:00;;;;;;;0.6;0.6;;;;;;;12.1;100.0;100820;;;;
2022/10/16 03:47:00;;;;;;;0.6;0.6;;;;;;;12.1;100.0;100820;;;;
2022/10/16 03:48:00;;;;;;;0.6;0.6;;;;;;;12.1;100.0;100820;;;;
2022/10/16 03:49:00;;;;;;;0.7;0.7;;;;;;;12.2;100.0;100820;;;;
2022/10/16 03:50:00;;;;;;;0.7;0.7;;;;;;;12.2;100.0;100820;;;;
2022/10/16 03:51:00;;;;;;;0.7;0.7;;;;;;;12.2;100.0;100820;;;;
2022/10/16 03:52:00;;;;;;;0.7;0.7;;;;;;;12.2;100.0;100820;;;;
2022/10/16 03:53:00;;;;;;;0.7;0.7;;;;;;;12.2;100.0;100820;;;;
2022/10/16 03:54:00;;;;;;;0.7;0.7;;;;;;;12.2;100.0;100820;;;;
2022/10/16 03:55:00;;;;;;;0.7;0.7;;;;;;;12.3;100.0;100820;;;;
2022/10/16 03:56:00;;;;;;;0.7;0.7;;;;;;;12.3;100.0;100820;;;;
2022/10/16 03:57:00;;;;;;;0.7;0.7;;;;;;;12.2;100.0;100820;;;;
2022/10/16 03:58:00;;;;;;;0.7;0.7;;;;;;;12.2;100.0;100820;;;;
2022/10/16 03:59:00;;;;;;;0.7;0.7;;;;;;;12.1;100.0;100820;;;;
2022/10/16 04:00:00;;;;;;;0.7;0.7;;;;;;;12.1;100.0;100820;;;;
2022/10/16 04:01:00;;;;;;;0.7;0.7;;;;;;;12.1;100.0;100820;;;;
2022/10/16 04:02:00;;;;;;;0.7;0.7;;;;;;;12.1;100.0;100820;;;;
2022/10/16 04:03:00;;;;;;;0.7;0.7;;;;;;;12.1;100.0;100830;;;;
2022/10/16 04:04:00;;;;;;;0.7;0.7;;;;;;;12.1;100.0;100830;;;;
2022/10/16 04:05:00;;;;;;;0.7;0.7;;;;;;;12.1;100.0;100830;;;;
2022/10/16 04:06:00;;;;;;;0.7;0.7;;;;;;;12.1;100.0;100830;;;;
2022/10/16 04:07:00;;;;;;;0.7;0.7;;;;;;;12.2;100.0;100830;;;;
2022/10/16 04:08:00;;;;;;;0.7;0.7;;;;;;;12.2;100.0;100830;;;;
2022/10/16 04:09:00;;;;;;;0.6;0.6;;;;;;;12.1;100.0;100830;;;;
2022/10/16 04:10:00;;;;;;;0.6;0.6;;;;;;;12.1;100.0;100830;;;;
2022/10/16 04:11:00;;;;;;;0.6;0.6;;;;;;;12.1;100.0;100830;;;;
2022/10/16 04:12:00;;;;;;;0.6;0.6;;;;;;;12.1;100.0;100830;;;;
2022/10/16 04:13:00;;;;;;;0.6;0.6;;;;;;;12.0;100.0;100840;;;;
2022/10/16 04:14:00;;;;;;;0.6;0.6;;;;;;;12.0;100.0;100840;;;;
2022/10/16 04:15:00;;;;;;;0.6;0.6;;;;;;;12.1;100.0;100840;;;;
2022/10/16 04:16:00;;;;;;;0.6;0.6;;;;;;;12.1;100.0;100840;;;;
2022/10/16 04:17:00;;;;;;;0.6;0.6;;;;;;;12.2;100.0;100840;;;;
2022/10/16 04:18:00;;;;;;;0.6;0.6;;;;;;;12.2;100.0;100840;;;;
2022/10/16 04:19:00;;;;;;;0.6;0.6;;;;;;;12.2;100.0;100840;;;;
2022/10/16 04:20:00;;;;;;;0.6;0.6;;;;;;;12.2;100.0;100840;;;;
2022/10/16 04:21:04;;;;;;;0.6;0.6;;;;;;;12.1;100.0;100850;;;;
2022/10/16 04:22:00;;;;;;;0.6;0.6;;;;;;;12.1;100.0;100850;;;;
2022/10/16 04:23:00;;;;;;;0.6;0.6;;;;;;;12.1;100.0;100840;;;;
2022/10/16 04:24:00;;;;;;;0.6;0.6;;;;;;;12.1;100.0;100840;;;;
2022/10/16 04:25:00;;;;;;;0.6;0.6;;;;;;;12.0;100.0;100850;;;;
2022/10/16 04:26:00;;;;;;;0.6;0.6;;;;;;;12.0;100.0;100850;;;;
2022/10/16 04:27:00;;;;;;;0.6;0.6;;;;;;;12.2;100.0;100840;;;;
2022/10/16 04:28:00;;;;;;;0.6;0.6;;;;;;;12.2;100.0;100840;;;;
2022/10/16 04:29:00;;;;;;;0.5;0.5;;;;;;;12.2;100.0;100850;;;;
2022/10/16 04:30:00;;;;;;;0.5;0.5;;;;;;;12.2;100.0;100850;;;;
2022/10/16 04:31:00;;;;;;;0.5;0.5;;;;;;;12.1;100.0;100850;;;;
2022/10/16 04:32:00;;;;;;;0.5;0.5;;;;;;;12.1;100.0;100850;;;;
2022/10/16 04:33:01;;;;;;;0.5;0.5;;;;;;;12.2;100.0;100850;;;;
2022/10/16 04:34:00;;;;;;;0.5;0.5;;;;;;;12.2;100.0;100850;;;;
2022/10/16 04:35:00;;;;;;;0.5;0.5;;;;;;;12.2;100.0;100860;;;;
2022/10/16 04:36:01;;;;;;;0.5;0.5;;;;;;;12.2;100.0;100860;;;;
2022/10/16 04:37:00;;;;;;;0.5;0.5;;;;;;;12.2;100.0;100850;;;;
2022/10/16 04:38:00;;;;;;;0.5;0.5;;;;;;;12.2;100.0;100850;;;;
2022/10/16 04:39:00;;;;;;;0.5;0.5;;;;;;;12.2;100.0;100850;;;;
2022/10/16 04:40:00;;;;;;;0.5;0.5;;;;;;;12.2;100.0;100850;;;;
2022/10/16 04:41:00;;;;;;;0.5;0.5;;;;;;;12.2;100.0;100850;;;;
2022/10/16 04:42:00;;;;;;;0.5;0.5;;;;;;;12.2;100.0;100850;;;;
2022/10/16 04:43:00;;;;;;;0.5;0.5;;;;;;;12.1;100.0;100840;;;;
2022/10/16 04:44:00;;;;;;;0.5;0.5;;;;;;;12.1;100.0;100840;;;;
2022/10/16 04:45:00;;;;;;;0.5;0.5;;;;;;;12.2;100.0;100850;;;;
2022/10/16 04:46:00;;;;;;;0.5;0.5;;;;;;;12.2;100.0;100850;;;;
2022/10/16 04:47:00;;;;;;;0.5;0.5;;;;;;;12.2;100.0;100860;;;;
2022/10/16 04:48:00;;;;;;;0.5;0.5;;;;;;;12.2;100.0;100860;;;;
2022/10/16 04:49:00;;;;;;;0.6;0.6;;;;;;;12.2;100.0;100860;;;;
2022/10/16 04:50:02;;;;;;;0.6;0.6;;;;;;;12.2;100.0;100860;;;;
2022/10/16 04:51:00;;;;;;;0.6;0.6;;;;;;;12.3;100.0;100860;;;;
2022/10/16 04:52:00;;;;;;;0.6;0.6;;;;;;;12.3;100.0;100860;;;;
2022/10/16 04:53:00;;;;;;;0.6;0.6;;;;;;;12.2;100.0;100860;;;;
2022/10/16 04:54:00;;;;;;;0.6;0.6;;;;;;;12.2;100.0;100860;;;;
2022/10/16 04:55:02;;;;;;;0.6;0.6;;;;;;;12.2;100.0;100870;;;;
2022/10/16 04:56:00;;;;;;;0.6;0.6;;;;;;;12.2;100.0;100870;;;;
2022/10/16 04:57:00;;;;;;;0.6;0.6;;;;;;;12.2;100.0;100860;;;;
2022/10/16 04:58:00;;;;;;;0.6;0.6;;;;;;;12.2;100.0;100860;;;;
2022/10/16 04:59:00;;;;;;;0.6;0.6;;;;;;;12.2;100.0;100870;;;;
2022/10/16 05:00:00;;;;;;;0.6;0.6;;;;;;;12.2;100.0;100870;;;;
2022/10/16 05:01:00;;;;;;;0.6;0.6;;;;;;;12.1;100.0;100870;;;;
2022/10/16 05:02:00;;;;;;;0.6;0.6;;;;;;;12.1;100.0;100870;;;;
2022/10/16 05:03:00;;;;;;;0.6;0.6;;;;;;;12.1;100.0;100880;;;;
2022/10/16 05:04:00;;;;;;;0.6;0.6;;;;;;;12.1;100.0;100880;;;;
2022/10/16 05:05:00;;;;;;;0.6;0.6;;;;;;;12.1;100.0;100880;;;;
2022/10/16 05:06:00;;;;;;;0.6;0.6;;;;;;;12.1;100.0;100880;;;;
2022/10/16 05:07:00;;;;;;;0.6;0.6;;;;;;;12.2;100.0;100880;;;;
2022/10/16 05:08:00;;;;;;;0.6;0.6;;;;;;;12.2;100.0;100880;;;;
2022/10/16 05:09:00;;;;;;;0.6;0.6;;;;;;;12.1;100.0;100870;;;;
2022/10/16 05:10:00;;;;;;;0.6;0.6;;;;;;;12.1;100.0;100870;;;;
2022/10/16 05:11:00;;;;;;;0.6;0.6;;;;;;;12.1;100.0;100880;;;;
2022/10/16 05:12:00;;;;;;;0.6;0.6;;;;;;;12.1;100.0;100880;;;;
2022/10/16 05:13:00;;;;;;;0.6;0.6;;;;;;;12.2;100.0;100880;;;;
2022/10/16 05:14:00;;;;;;;0.6;0.6;;;;;;;12.2;100.0;100880;;;;
2022/10/16 05:15:00;;;;;;;0.6;0.6;;;;;;;12.1;100.0;100880;;;;
2022/10/16 05:16:00;;;;;;;0.6;0.6;;;;;;;12.1;100.0;100880;;;;
2022/10/16 05:17:00;;;;;;;0.6;0.6;;;;;;;12.1;100.0;100890;;;;
2022/10/16 05:18:00;;;;;;;0.6;0.6;;;;;;;12.1;100.0;100890;;;;
2022/10/16 05:19:10;;;;;;;0.6;0.6;;;;;;;12.0;100.0;100900;;;;
2022/10/16 05:20:00;;;;;;;0.6;0.6;;;;;;;12.0;100.0;100900;;;;
2022/10/16 05:21:00;;;;;;;0.6;0.6;;;;;;;12.0;100.0;100900;;;;
2022/10/16 05:22:00;;;;;;;0.6;0.6;;;;;;;12.0;100.0;100900;;;;
2022/10/16 05:23:00;;;;;;;0.6;0.6;;;;;;;12.0;100.0;100900;;;;
2022/10/16 05:24:00;;;;;;;0.6;0.6;;;;;;;12.0;100.0;100900;;;;
2022/10/16 05:25:00;;;;;;;0.6;0.6;;;;;;;12.0;100.0;100900;;;;
2022/10/16 05:26:00;;;;;;;0.6;0.6;;;;;;;12.0;100.0;100900;;;;
2022/10/16 05:27:00;;;;;;;0.6;0.6;;;;;;;11.9;100.0;100910;;;;
2022/10/16 05:28:00;;;;;;;0.6;0.6;;;;;;;11.9;100.0;100910;;;;
2022/10/16 05:29:00;;;;;;;1.1;1.1;;;;;;;12.1;100.0;100910;;;;
2022/10/16 05:30:00;;;;;;;1.1;1.1;;;;;;;12.1;100.0;100910;;;;
2022/10/16 05:31:03;;;;;;;1.1;1.1;;;;;;;12.1;100.0;100910;;;;
2022/10/16 05:32:00;;;;;;;1.1;1.1;;;;;;;12.1;100.0;100910;;;;
2022/10/16 05:33:00;;;;;;;1.1;1.1;;;;;;;12.1;100.0;100910;;;;
2022/10/16 05:34:00;;;;;;;1.1;1.1;;;;;;;12.1;100.0;100910;;;;
2022/10/16 05:35:00;;;;;;;1.1;1.1;;;;;;;12.0;100.0;100920;;;;
2022/10/16 05:36:02;;;;;;;1.1;1.1;;;;;;;12.0;100.0;100920;;;;
2022/10/16 05:37:00;;;;;;;1.1;1.1;;;;;;;12.0;100.0;100920;;;;
2022/10/16 05:38:00;;;;;;;1.1;1.1;;;;;;;12.0;100.0;100920;;;;
2022/10/16 05:39:00;;;;;;;1.1;1.1;;;;;;;12.0;100.0;100930;;;;
2022/10/16 05:40:00;;;;;;;1.1;1.1;;;;;;;12.0;100.0;100930;;;;
2022/10/16 05:41:00;;;;;;;1.1;1.1;;;;;;;12.0;100.0;100930;;;;
2022/10/16 05:42:00;;;;;;;1.1;1.1;;;;;;;12.0;100.0;100930;;;;
2022/10/16 05:43:00;;;;;;;1.1;1.1;;;;;;;11.9;100.0;100930;;;;
2022/10/16 05:44:00;;;;;;;1.1;1.1;;;;;;;11.9;100.0;100930;;;;
2022/10/16 05:45:00;;;;;;;1.1;1.1;;;;;;;12.0;100.0;100940;;;;
2022/10/16 05:46:02;;;;;;;1.1;1.1;;;;;;;12.0;100.0;100940;;;;
2022/10/16 05:47:00;;;;;;;1.1;1.1;;;;;;;12.0;100.0;100940;;;;
2022/10/16 05:48:00;;;;;;;1.1;1.1;;;;;;;12.0;100.0;100940;;;;
2022/10/16 05:49:00;;;;;;;2.0;1.9;;;;;;;11.9;100.0;100950;;;;
2022/10/16 05:50:00;;;;;;;2.0;1.9;;;;;;;11.9;100.0;100950;;;;
2022/10/16 05:51:02;;;;;;;2.0;1.9;;;;;;;12.0;100.0;100950;;;;
2022/10/16 05:52:00;;;;;;;2.0;1.9;;;;;;;12.0;100.0;100950;;;;
2022/10/16 05:53:00;;;;;;;2.0;1.9;;;;;;;12.0;100.0;100960;;;;
2022/10/16 05:54:00;;;;;;;2.0;1.9;;;;;;;12.0;100.0;100960;;;;
2022/10/16 05:55:00;;;;;;;2.0;1.9;;;;;;;12.0;100.0;100960;;;;
2022/10/16 05:56:00;;;;;;;2.0;1.9;;;;;;;12.0;100.0;100960;;;;
2022/10/16 05:57:00;;;;;;;2.0;1.9;;;;;;;12.0;100.0;100960;;;;
2022/10/16 05:58:00;;;;;;;2.0;1.9;;;;;;;12.0;100.0;100960;;;;
2022/10/16 05:59:00;;;;;;;2.0;1.9;;;;;;;11.9;100.0;100970;;;;
2022/10/16 06:00:00;;;;;;;2.0;1.9;;;;;;;11.9;100.0;100970;;;;
2022/10/16 06:01:02;;;;;;;2.0;1.9;;;;;;;11.9;100.0;100980;;;;
2022/10/16 06:02:00;;;;;;;2.0;1.9;;;;;;;11.9;100.0;100980;;;;
2022/10/16 06:03:00;;;;;;;2.0;1.9;;;;;;;11.8;100.0;100990;;;;
2022/10/16 06:04:00;;;;;;;2.0;1.9;;;;;;;11.8;100.0;100990;;;;
2022/10/16 06:05:00;;;;;;;2.0;1.9;;;;;;;11.9;100.0;100990;;;;
2022/10/16 06:06:12;;;;;;;2.0;1.9;;;;;;;11.9;100.0;100990;;;;
2022/10/16 06:07:00;;;;;;;2.0;1.9;;;;;;;11.9;100.0;100990;;;;
2022/10/16 06:08:00;;;;;;;2.0;1.9;;;;;;;11.9;100.0;100990;;;;
2022/10/16 06:09:00;;;;;;;0.6;0.6;;;;;;;11.9;100.0;101000;;;;
2022/10/16 06:10:00;;;;;;;0.6;0.6;;;;;;;11.9;100.0;101000;;;;
2022/10/16 06:11:01;;;;;;;0.6;0.6;;;;;;;12.0;100.0;101000;;;;
2022/10/16 06:12:00;;;;;;;0.6;0.6;;;;;;;12.0;100.0;101000;;;;
2022/10/16 06:13:00;;;;;;;0.6;0.6;;;;;;;11.8;100.0;100990;;;;
2022/10/16 06:14:02;;;;;;;0.6;0.6;;;;;;;11.8;100.0;100990;;;;
2022/10/16 06:15:00;;;;;;;0.6;0.6;;;;;;;11.9;100.0;101000;;;;
2022/10/16 06:16:00;;;;;;;0.6;0.6;;;;;;;11.9;100.0;101000;;;;
2022/10/16 06:17:00;;;;;;;0.6;0.6;;;;;;;11.9;100.0;101000;;;;
2022/10/16 06:18:00;;;;;;;0.6;0.6;;;;;;;11.9;100.0;101000;;;;
2022/10/16 06:19:00;;;;;;;0.6;0.6;;;;;;;11.8;100.0;101010;;;;
2022/10/16 06:20:00;;;;;;;0.6;0.6;;;;;;;11.8;100.0;101010;;;;
2022/10/16 06:21:06;;;;;;;0.6;0.6;;;;;;;11.8;100.0;101010;;;;
2022/10/16 06:22:02;;;;;;;0.6;0.6;;;;;;;11.8;100.0;101010;;;;